This is the latest recevied weather packets stored in our database for station/object GW1496. If no packets are shown the sender has not sent any weather packets the latest 10 day(s).
| Time | Temp. | Humidity | Pressure | Rain* | Wind** | Luminosity | Snow |
|---|---|---|---|---|---|---|---|
| 1777928990 | 25.56° C | 32% | 1002 hPa | 0 mm | - | - | - |
| 1777927172 | 25° C | 32% | 1002 hPa | 0 mm | - | - | - |
| 1777925741 | 25° C | 33% | 1003 hPa | 0 mm | - | - | - |
| 1777923576 | 23.89° C | 34% | 1003 hPa | 0 mm | - | - | - |
| 1777922842 | 23.89° C | 37% | 1003 hPa | 0 mm | - | - | - |
| 1777921789 | 23.33° C | 36% | 1003 hPa | 0 mm | - | - | - |
| 1777921053 | 22.78° C | 37% | 1004 hPa | 0 mm | - | - | - |
| 1777920335 | 21.67° C | 41% | 1004 hPa | 0 mm | - | - | - |
| 1777917800 | 21.67° C | 42% | 1004 hPa | 0 mm | - | - | - |
| 1777917468 | 21.11° C | 43% | 1004 hPa | 0 mm | - | - | - |
| 1777915633 | 18.33° C | 50% | 1005 hPa | 0 mm | - | - | - |
| 1777913498 | 18.33° C | 52% | 1006 hPa | 0 mm | - | - | - |
| 1777911690 | 18.89° C | 48% | 1006 hPa | 0 mm | - | - | - |
| 1777911312 | 18.89° C | 49% | 1006 hPa | 0 mm | - | - | - |
| 1777910082 | 19.44° C | 46% | 1006 hPa | 0 mm | - | - | - |
| 1777908269 | 17.78° C | 47% | 1006 hPa | 0 mm | - | - | - |
| 1777907533 | 16.67° C | 48% | 1006.7 hPa | 0 mm | - | - | - |
| 1777906483 | 15.56° C | 52% | 1006.7 hPa | 0 mm | - | - | - |
| 1777903613 | 14.44° C | 51% | 1006.7 hPa | 0 mm | - | - | - |
| 1777902870 | 13.33° C | 57% | 1006.7 hPa | 0 mm | - | - | - |
| 1777902163 | 13.33° C | 57% | 1006.7 hPa | 0 mm | - | - | - |
| 1777898905 | 10° C | 58% | 1006.7 hPa | 0 mm | - | - | - |
| 1777896405 | 6.11° C | 77% | 1006.7 hPa | 0 mm | - | - | - |
| 1777895323 | 5.56° C | 83% | 1006.7 hPa | 0 mm | - | - | - |
| 1777892430 | 4.44° C | 87% | 1006 hPa | 0 mm | - | - | - |
* Rain since midnight (hover to see other rain measurements)
** Current wind speed in m/s (hover to see current wind gust speed)